Boaz, Illinois
Current Conditions -  °F | °C
As of 6:15 AM on Saturday 25 Oct 2014 (Local Time) from KM30 Reporting Station
Haze Haze  
Wind Chill: 51°   Ceiling: Unl
Heat Index: 51°   Visibility: 1.7mi
Dew Point: 51°   Wind: 0mph
Humidity: 100%   Direction: NA
Pressure: 30.04"   Gusts: NA
Location:  37.2846°N, 88.9742°W
Report Text: KM30 251115Z AUTO 00000KT 1 3/4SM BR SCT041 11/11 A3004 RMK AO2 T01050105
Loading
Personal Weather Stations






























Interactive Weather Map
Tropical Storm Tracking
New forecast layout! Learn more

10-Day Weather Forecast

Advertisements
Track Severe Weather on mobile